Time;durP1;ratioP1;P1;durP2;ratioP2;P2;SDS_P1;SDS_P2;PMS_P1;PMS_P2;Temp;Humidity;BMP_temperature;BMP_pressure;BME280_temperature;BME280_humidity;BME280_pressure;Samples;Min_cycle;Max_cycle;Signal;HPM_P1;HPM_P2
2021/12/26 00:00:10;;;;;;;4.60;2.67;;;;;;;8.78;46.60;100497.50;5075136;28;20024;-56
2021/12/26 00:02:35;;;;;;;2.17;2.05;;;;;;;8.82;46.73;100508.78;5093022;28;20026;-56
2021/12/26 00:05:01;;;;;;;3.47;2.78;;;;;;;8.79;47.29;100501.84;5074878;28;20032;-57
2021/12/26 00:07:26;;;;;;;6.38;2.83;;;;;;;8.85;46.88;100507.69;5075589;28;20035;-57
2021/12/26 00:09:52;;;;;;;2.92;2.08;;;;;;;8.86;47.45;100504.03;5086105;28;20082;-57
2021/12/26 00:12:17;;;;;;;4.65;3.03;;;;;;;8.85;46.90;100497.00;5092994;28;20042;-56
2021/12/26 00:14:42;;;;;;;5.03;3.25;;;;;;;8.82;47.06;100486.56;5093108;28;20031;-56
2021/12/26 00:17:08;;;;;;;5.72;2.85;;;;;;;8.81;47.21;100493.72;5092994;28;20020;-57
2021/12/26 00:19:34;;;;;;;3.75;2.30;;;;;;;8.83;47.23;100493.59;5092040;28;20055;-56
2021/12/26 00:21:59;;;;;;;4.93;2.90;;;;;;;8.80;46.59;100494.69;5092630;28;20451;-56
2021/12/26 00:24:24;;;;;;;3.40;2.25;;;;;;;8.79;46.57;100493.84;5092664;28;20028;-57
2021/12/26 00:26:50;;;;;;;3.58;2.45;;;;;;;8.79;47.15;100493.84;5092621;28;20032;-56
2021/12/26 00:29:15;;;;;;;4.70;2.90;;;;;;;8.77;47.29;100487.78;5092947;28;20035;-57
2021/12/26 00:31:41;;;;;;;5.07;2.55;;;;;;;8.79;47.28;100483.16;5092452;28;20027;-56
2021/12/26 00:34:06;;;;;;;6.00;2.60;;;;;;;8.79;46.78;100485.81;5082960;28;20450;-56
2021/12/26 00:36:32;;;;;;;5.65;2.63;;;;;;;8.85;47.22;100491.66;5057523;28;20042;-57
2021/12/26 00:38:57;;;;;;;4.63;2.63;;;;;;;8.86;46.98;100485.31;5092169;28;20103;-55
2021/12/26 00:41:23;;;;;;;5.47;3.40;;;;;;;8.86;46.55;100488.00;5092347;28;20032;-56
2021/12/26 00:43:48;;;;;;;5.10;3.35;;;;;;;8.87;46.81;100495.03;5092568;28;20087;-56
2021/12/26 00:46:13;;;;;;;5.63;3.25;;;;;;;8.88;47.03;100486.91;5092565;28;20038;-57
2021/12/26 00:48:39;;;;;;;4.53;2.83;;;;;;;8.89;47.26;100488.59;5092802;28;20032;-57
2021/12/26 00:51:04;;;;;;;3.50;2.75;;;;;;;8.89;46.75;100498.44;5057964;28;20016;-57
2021/12/26 00:53:30;;;;;;;4.88;2.90;;;;;;;8.90;47.02;100494.78;5092384;28;20031;-56
2021/12/26 00:55:55;;;;;;;4.75;2.60;;;;;;;8.89;47.24;100495.75;5092301;28;20024;-57
2021/12/26 00:58:21;;;;;;;3.20;2.47;;;;;;;8.90;47.40;100489.47;5073938;28;20500;-57
2021/12/26 01:00:48;;;;;;;5.63;2.78;;;;;;;8.87;47.01;100487.03;5092187;28;20062;-56
2021/12/26 01:03:14;;;;;;;7.43;3.60;;;;;;;8.88;47.16;100496.75;5074552;28;20024;-57
2021/12/26 01:05:42;;;;;;;5.15;2.83;;;;;;;8.86;47.49;100491.53;5092391;28;20024;-56
2021/12/26 01:08:09;;;;;;;12.25;3.47;;;;;;;8.87;46.78;100487.88;5074461;28;20035;-56
2021/12/26 01:10:42;;;;;;;5.22;3.10;;;;;;;8.87;46.77;100487.03;5092993;28;20024;-57
2021/12/26 01:13:17;;;;;;;4.60;2.83;;;;;;;8.89;46.85;100482.41;5092569;28;20137;-56
2021/12/26 01:15:44;;;;;;;6.28;3.78;;;;;;;8.87;46.96;100473.69;5090319;28;20031;-56
2021/12/26 01:18:09;;;;;;;5.90;3.85;;;;;;;8.90;47.38;100481.44;5057823;28;20016;-58
2021/12/26 01:20:51;;;;;;;7.30;3.13;;;;;;;8.90;47.26;100478.78;5091967;28;20388;-56
2021/12/26 01:23:19;;;;;;;5.38;2.97;;;;;;;8.89;46.41;100488.59;5060115;28;20057;-57
2021/12/26 01:25:44;;;;;;;5.50;2.95;;;;;;;8.88;46.79;100489.56;5074391;28;20414;-57
2021/12/26 01:28:10;;;;;;;5.88;3.05;;;;;;;8.88;47.32;100480.72;5092399;28;20027;-56
2021/12/26 01:30:38;;;;;;;6.07;3.00;;;;;;;8.87;46.75;100468.34;5074246;28;20019;-55
2021/12/26 01:33:06;;;;;;;5.82;3.60;;;;;;;8.88;47.55;100475.38;5092206;28;20081;-57
2021/12/26 01:35:31;;;;;;;5.65;3.35;;;;;;;8.88;46.91;100486.06;5092214;28;20049;-55
2021/12/26 01:37:57;;;;;;;6.72;3.30;;;;;;;8.89;47.66;100482.41;5071917;28;20020;-57
2021/12/26 01:40:22;;;;;;;5.15;3.08;;;;;;;8.90;47.64;100478.78;5092056;28;20028;-57
2021/12/26 01:42:48;;;;;;;4.10;3.13;;;;;;;8.88;47.41;100483.41;5051562;28;20547;-57
2021/12/26 01:45:13;;;;;;;8.35;3.63;;;;;;;8.87;47.68;100479.03;5095536;28;20030;-57
2021/12/26 01:47:39;;;;;;;7.07;3.53;;;;;;;8.89;47.00;100474.41;5095625;28;20031;-58
2021/12/26 01:50:05;;;;;;;5.25;3.53;;;;;;;8.89;46.91;100475.25;5077484;28;20016;-55
2021/12/26 01:52:30;;;;;;;4.15;3.22;;;;;;;8.87;47.60;100471.88;5077764;28;20039;-56
2021/12/26 01:55:21;;;;;;;4.32;3.33;;;;;;;8.88;46.80;100470.06;5095589;28;20020;-56
2021/12/26 01:57:51;;;;;;;5.63;3.60;;;;;;;8.87;47.37;100471.00;5060965;28;20053;-56
2021/12/26 02:00:17;;;;;;;5.30;3.55;;;;;;;8.84;47.67;100468.59;5077690;28;20016;-57
2021/12/26 02:02:43;;;;;;;4.90;3.30;;;;;;;8.84;47.54;100468.59;5042611;28;20024;-56
2021/12/26 02:05:09;;;;;;;5.85;4.00;;;;;;;8.83;47.25;100472.22;5095174;28;20099;-56
2021/12/26 02:07:34;;;;;;;4.78;3.33;;;;;;;8.81;46.79;100472.38;5077320;28;20024;-56
2021/12/26 02:09:59;;;;;;;9.93;4.57;;;;;;;8.79;46.86;100474.31;5077267;28;20032;-56
2021/12/26 02:12:25;;;;;;;6.10;3.38;;;;;;;8.76;47.81;100469.22;5095023;28;20024;-55
2021/12/26 02:14:50;;;;;;;7.72;4.38;;;;;;;8.76;46.93;100470.09;5085951;28;20028;-56
2021/12/26 02:17:16;;;;;;;7.80;4.20;;;;;;;8.76;47.68;100461.22;5095137;28;20482;-56
2021/12/26 02:19:42;;;;;;;8.57;3.92;;;;;;;8.75;47.74;100463.03;5076744;28;20388;-57
2021/12/26 02:22:15;;;;;;;7.68;4.95;;;;;;;8.63;46.88;100448.03;5094602;28;20028;-56
2021/12/26 02:27:32;;;;;;;6.10;3.83;;;;;;;8.75;47.04;100470.19;5078026;28;20389;-56
2021/12/26 02:30:28;;;;;;;7.22;3.72;;;;;;;8.74;47.29;100461.34;5092422;28;20020;-57
2021/12/26 02:32:57;;;;;;;6.63;4.30;;;;;;;8.75;47.40;100471.06;5067033;28;20028;-56
2021/12/26 02:35:23;;;;;;;6.47;4.07;;;;;;;8.75;47.41;100455.03;5077305;28;20149;-57
2021/12/26 02:37:49;;;;;;;7.72;4.22;;;;;;;8.78;47.83;100457.44;5094975;28;20027;-57
2021/12/26 02:40:16;;;;;;;7.30;4.05;;;;;;;8.82;47.35;100462.53;5094293;28;20016;-57
2021/12/26 02:42:42;;;;;;;5.78;3.67;;;;;;;8.83;46.98;100461.53;5075789;28;20034;-57
2021/12/26 02:45:08;;;;;;;7.65;4.13;;;;;;;8.85;47.41;100459.63;5094560;28;20024;-57
2021/12/26 02:47:42;;;;;;;8.50;3.97;;;;;;;8.86;47.78;100461.28;5094500;28;20028;-57
2021/12/26 02:50:12;;;;;;;6.68;3.65;;;;;;;8.88;46.91;100459.38;5094537;28;20023;-56
2021/12/26 02:52:37;;;;;;;8.90;4.30;;;;;;;8.90;46.98;100457.41;5092262;28;20020;-57
2021/12/26 02:55:04;;;;;;;9.30;4.72;;;;;;;8.85;47.74;100444.41;5094776;28;20107;-55
2021/12/26 02:57:29;;;;;;;6.20;3.88;;;;;;;8.92;47.54;100450.97;5095910;28;20035;-57
2021/12/26 02:59:54;;;;;;;6.88;4.15;;;;;;;8.93;47.53;100446.47;5077067;28;20032;-57
2021/12/26 03:02:20;;;;;;;8.15;4.25;;;;;;;8.92;47.33;100450.09;5095059;28;20032;-57
2021/12/26 03:04:45;;;;;;;6.25;3.85;;;;;;;8.96;47.15;100447.03;5094994;28;20027;-56
2021/12/26 03:07:11;;;;;;;7.05;3.95;;;;;;;8.96;47.97;100446.22;5094928;28;20028;-56
2021/12/26 03:09:46;;;;;;;7.70;4.75;;;;;;;8.96;47.09;100446.22;5094605;28;20024;-56
2021/12/26 03:12:12;;;;;;;7.43;4.32;;;;;;;8.95;47.78;100439.16;5094851;28;20388;-58
2021/12/26 03:14:39;;;;;;;7.47;4.07;;;;;;;8.96;47.10;100438.19;5075959;28;20078;-57
2021/12/26 03:17:05;;;;;;;5.38;3.47;;;;;;;8.96;47.45;100440.88;5094382;28;20016;-56
2021/12/26 03:19:32;;;;;;;5.90;3.70;;;;;;;8.94;46.96;100449.00;5092889;28;20020;-56
2021/12/26 03:21:58;;;;;;;8.93;4.47;;;;;;;8.91;47.88;100443.06;5093851;28;20024;-57
2021/12/26 03:24:23;;;;;;;9.20;4.57;;;;;;;8.96;47.39;100440.88;5076130;28;20028;-56
2021/12/26 03:26:49;;;;;;;7.63;4.68;;;;;;;8.93;46.68;100436.63;5094534;28;20083;-56
2021/12/26 03:29:14;;;;;;;7.97;3.70;;;;;;;8.92;47.25;100434.09;5094643;28;20106;-56
2021/12/26 03:31:41;;;;;;;6.25;4.40;;;;;;;8.92;47.94;100440.28;5094211;28;20046;-57
2021/12/26 03:34:07;;;;;;;7.93;3.88;;;;;;;8.90;48.29;100433.38;5092861;28;20019;-57
2021/12/26 03:36:33;;;;;;;8.32;4.80;;;;;;;8.91;47.69;100432.38;5094139;28;20024;-56
2021/12/26 03:38:58;;;;;;;10.40;4.57;;;;;;;8.91;47.74;100432.38;5093749;28;20094;-57
2021/12/26 03:41:23;;;;;;;8.77;4.97;;;;;;;8.81;47.29;100410.09;5094211;28;20032;-56
2021/12/26 03:43:49;;;;;;;12.38;4.88;;;;;;;8.88;48.15;100422.78;5094094;28;20028;-56
2021/12/26 03:46:14;;;;;;;7.38;5.03;;;;;;;8.92;47.62;100429.59;5075588;28;20024;-56
2021/12/26 03:48:40;;;;;;;14.95;4.57;;;;;;;8.99;47.92;100449.47;5075964;28;20866;-57
2021/12/26 03:51:05;;;;;;;8.57;4.70;;;;;;;8.98;48.05;100444.25;5094040;28;20020;-56
2021/12/26 03:53:31;;;;;;;9.18;4.68;;;;;;;9.00;47.73;100436.94;5094068;28;20032;-56
2021/12/26 03:55:56;;;;;;;7.85;4.90;;;;;;;9.00;48.26;100443.16;5093561;28;20024;-57
2021/12/26 03:58:21;;;;;;;14.35;4.72;;;;;;;9.01;47.49;100439.50;5093625;28;20064;-55
2021/12/26 04:00:48;;;;;;;7.53;4.43;;;;;;;8.93;48.02;100423.28;5075125;28;20400;-57
2021/12/26 04:03:14;;;;;;;8.32;4.55;;;;;;;9.01;48.09;100433.31;5059023;28;20028;-57
2021/12/26 04:05:39;;;;;;;9.82;4.80;;;;;;;9.00;48.05;100423.59;5093548;28;20077;-57
2021/12/26 04:08:05;;;;;;;6.65;4.05;;;;;;;9.02;48.00;100418.97;5094523;28;20028;-55
2021/12/26 04:10:31;;;;;;;9.65;5.25;;;;;;;9.00;47.47;100427.13;5094756;28;20048;-57
2021/12/26 04:12:57;;;;;;;8.02;4.45;;;;;;;8.99;47.76;100413.91;5094188;28;20046;-56
2021/12/26 04:15:23;;;;;;;7.78;3.95;;;;;;;9.03;48.20;100409.97;5094247;28;20027;-56
2021/12/26 04:17:51;;;;;;;7.05;4.57;;;;;;;9.04;48.08;100417.88;5076419;28;20020;-55
2021/12/26 04:20:16;;;;;;;8.98;4.90;;;;;;;9.02;47.46;100413.63;5093880;28;20040;-57
2021/12/26 04:22:42;;;;;;;11.30;5.82;;;;;;;9.01;47.46;100404.78;5094065;28;20028;-57
2021/12/26 04:25:08;;;;;;;8.25;4.20;;;;;;;9.04;48.20;100411.69;5094224;28;20103;-56
2021/12/26 04:27:33;;;;;;;9.65;3.75;;;;;;;9.03;47.56;100409.97;5094444;28;20027;-57
2021/12/26 04:29:59;;;;;;;9.15;4.90;;;;;;;9.06;47.61;100409.72;5076033;28;20016;-57
2021/12/26 04:32:24;;;;;;;9.75;4.57;;;;;;;9.04;48.42;100412.53;5094190;28;20024;-55
2021/12/26 04:34:50;;;;;;;8.50;5.15;;;;;;;9.08;48.22;100421.13;5076491;28;20105;-57
2021/12/26 04:37:15;;;;;;;14.68;5.07;;;;;;;9.08;48.50;100421.97;5075896;28;20384;-56
2021/12/26 04:39:41;;;;;;;7.72;4.53;;;;;;;9.15;47.42;100419.66;5075968;28;20024;-57
2021/12/26 04:42:07;;;;;;;9.90;5.30;;;;;;;9.17;47.67;100417.69;5094286;28;20031;-56
2021/12/26 04:44:32;;;;;;;9.57;5.50;;;;;;;9.16;47.65;100415.97;5076610;28;20020;-57
2021/12/26 04:46:58;;;;;;;10.13;5.22;;;;;;;9.15;48.14;100428.50;5094734;28;20054;-56
2021/12/26 04:49:23;;;;;;;9.88;5.03;;;;;;;9.19;47.90;100423.72;5077362;28;20028;-56
2021/12/26 04:51:49;;;;;;;12.77;5.43;;;;;;;9.16;47.54;100413.31;5094682;28;20036;-57
2021/12/26 04:54:14;;;;;;;10.60;5.55;;;;;;;9.16;48.23;100411.47;5094880;28;20039;-58
2021/12/26 04:56:40;;;;;;;10.88;5.03;;;;;;;9.22;47.89;100410.97;5094211;28;20020;-59
2021/12/26 04:59:05;;;;;;;8.75;5.35;;;;;;;9.19;47.74;100408.56;5093626;28;20031;-56
2021/12/26 05:01:31;;;;;;;7.45;4.57;;;;;;;9.19;48.20;100410.38;5093857;28;20022;-57
2021/12/26 05:03:56;;;;;;;10.93;5.75;;;;;;;9.22;47.91;100410.13;5076276;28;20028;-56
2021/12/26 05:06:22;;;;;;;8.18;4.97;;;;;;;9.18;47.98;100404.22;5093943;28;20481;-56
2021/12/26 05:08:47;;;;;;;9.98;4.75;;;;;;;9.25;47.69;100409.84;5094156;28;20478;-55
2021/12/26 05:11:12;;;;;;;9.57;5.00;;;;;;;9.25;47.90;100399.16;5076146;28;20423;-56
2021/12/26 05:13:38;;;;;;;12.40;5.75;;;;;;;9.24;48.68;100395.63;5093873;28;20030;-57
2021/12/26 05:16:03;;;;;;;6.82;4.50;;;;;;;9.23;48.37;100396.63;5093533;28;20027;-55
2021/12/26 05:18:29;;;;;;;7.60;4.65;;;;;;;9.22;47.61;100394.06;5077042;28;20400;-55
2021/12/26 05:20:56;;;;;;;10.43;5.03;;;;;;;9.24;47.99;100395.63;5097306;28;20044;-56
2021/12/26 05:23:22;;;;;;;11.63;6.28;;;;;;;9.25;47.95;100399.16;5079749;28;20024;-56
2021/12/26 05:25:47;;;;;;;9.93;5.25;;;;;;;9.27;48.10;100394.53;5063077;28;20020;-56
2021/12/26 05:28:13;;;;;;;10.82;5.35;;;;;;;9.31;48.43;100395.97;5097985;28;20073;-57
2021/12/26 05:30:38;;;;;;;7.85;4.40;;;;;;;9.30;47.76;100391.59;5097501;28;20096;-57
2021/12/26 05:33:03;;;;;;;9.45;5.63;;;;;;;9.30;48.08;100388.91;5097966;28;20035;-55
2021/12/26 05:35:30;;;;;;;10.00;4.88;;;;;;;9.31;47.67;100388.81;5078965;28;20020;-55
2021/12/26 05:37:56;;;;;;;7.85;4.40;;;;;;;9.30;47.73;100380.91;5097357;28;20033;-56
2021/12/26 05:40:21;;;;;;;9.20;5.18;;;;;;;9.30;48.24;100380.91;5097386;28;20024;-56
2021/12/26 05:42:47;;;;;;;7.10;4.43;;;;;;;9.29;48.34;100381.91;5078995;28;20111;-57
2021/12/26 05:45:12;;;;;;;7.72;4.93;;;;;;;9.27;48.56;100386.50;5097466;28;20472;-57
2021/12/26 05:47:38;;;;;;;13.85;5.68;;;;;;;9.28;48.82;100385.53;5097649;28;20024;-56
2021/12/26 05:50:06;;;;;;;12.20;5.15;;;;;;;9.31;48.29;100382.59;5097535;28;20499;-56
2021/12/26 05:52:32;;;;;;;9.32;5.43;;;;;;;9.32;48.51;100373.63;5097788;28;20020;-56
2021/12/26 05:54:57;;;;;;;8.45;4.53;;;;;;;9.34;48.65;100380.53;5097763;28;20369;-56
2021/12/26 05:57:23;;;;;;;9.48;5.18;;;;;;;9.35;48.77;100373.34;5097405;28;20107;-56
2021/12/26 05:59:48;;;;;;;10.30;4.93;;;;;;;9.36;48.29;100372.34;5097104;28;20024;-57
2021/12/26 06:02:14;;;;;;;13.07;6.30;;;;;;;9.42;48.33;100373.66;5079160;28;20024;-57
2021/12/26 06:04:40;;;;;;;10.05;5.35;;;;;;;9.39;48.72;100369.44;5096931;28;20024;-55
2021/12/26 06:07:06;;;;;;;8.98;5.25;;;;;;;9.40;48.08;100370.28;5097333;28;20024;-56
2021/12/26 06:09:31;;;;;;;9.48;5.18;;;;;;;9.34;48.65;100366.31;5078591;28;20020;-57
2021/12/26 06:11:57;;;;;;;6.82;4.18;;;;;;;9.38;49.06;100383.75;5078188;28;20062;-56
2021/12/26 06:14:22;;;;;;;8.88;4.70;;;;;;;9.37;48.28;100387.44;5096474;28;20024;-56
2021/12/26 06:16:48;;;;;;;10.45;5.10;;;;;;;9.36;48.71;100378.56;5096480;28;20024;-56
2021/12/26 06:19:13;;;;;;;9.63;5.00;;;;;;;9.35;48.30;100386.72;5078340;28;20423;-56
2021/12/26 06:21:38;;;;;;;10.07;4.85;;;;;;;9.31;49.00;100383.47;5078158;28;20086;-56
2021/12/26 06:24:04;;;;;;;9.73;5.07;;;;;;;9.25;47.92;100370.63;5096448;28;20028;-57
2021/12/26 06:26:30;;;;;;;10.48;5.30;;;;;;;9.27;48.39;100382.00;5096071;28;20081;-55
2021/12/26 06:28:55;;;;;;;11.98;5.07;;;;;;;9.17;48.96;100364.25;5094306;28;20034;-55
2021/12/26 06:31:21;;;;;;;11.18;5.53;;;;;;;9.27;48.74;100392.72;5096473;28;20026;-56
2021/12/26 06:33:47;;;;;;;11.57;5.43;;;;;;;9.21;48.90;100371.84;5095458;28;20027;-56
2021/12/26 06:36:13;;;;;;;8.55;4.93;;;;;;;9.24;48.39;100376.94;5095123;28;20385;-56
2021/12/26 06:38:39;;;;;;;8.55;5.13;;;;;;;9.25;48.08;100378.63;5078033;28;20039;-56
2021/12/26 06:41:05;;;;;;;11.55;5.63;;;;;;;9.28;48.79;100377.53;5096360;28;20483;-57
2021/12/26 06:43:31;;;;;;;12.10;5.85;;;;;;;9.30;48.99;100388.91;5096230;28;20081;-57
2021/12/26 06:45:57;;;;;;;15.30;5.05;;;;;;;9.31;48.71;100382.59;5096251;28;20408;-57
2021/12/26 06:48:22;;;;;;;10.35;5.72;;;;;;;9.31;48.91;100372.78;5096062;28;20595;-56
2021/12/26 06:50:48;;;;;;;9.98;5.50;;;;;;;9.31;49.16;100379.94;5094546;28;20469;-56
2021/12/26 06:53:14;;;;;;;12.00;5.88;;;;;;;9.32;48.66;100389.66;5095145;28;20031;-55
2021/12/26 06:55:40;;;;;;;11.32;5.43;;;;;;;9.30;48.51;100375.56;5094908;28;20024;-57
2021/12/26 06:58:05;;;;;;;13.30;5.57;;;;;;;9.30;48.64;100368.41;5096170;28;20110;-57
2021/12/26 07:00:31;;;;;;;10.43;5.30;;;;;;;9.28;48.58;100361.50;5095931;28;20083;-56
2021/12/26 07:02:57;;;;;;;9.38;5.88;;;;;;;9.31;48.75;100371.91;5095938;28;20031;-57
2021/12/26 07:05:22;;;;;;;11.30;5.43;;;;;;;9.30;48.57;100368.41;5096135;28;20445;-56
2021/12/26 07:07:48;;;;;;;9.93;5.43;;;;;;;9.26;48.21;100358.13;5096153;28;20100;-55
2021/12/26 07:10:14;;;;;;;13.15;5.70;;;;;;;9.24;48.76;100362.75;5094005;28;20066;-56
2021/12/26 07:12:39;;;;;;;11.95;6.00;;;;;;;9.26;48.52;100358.13;5096409;28;20024;-57
2021/12/26 07:15:06;;;;;;;10.73;5.45;;;;;;;9.26;48.88;100363.47;5094004;28;20457;-56
2021/12/26 07:17:31;;;;;;;12.73;5.82;;;;;;;9.26;48.84;100363.47;5095621;28;20511;-56
2021/12/26 07:19:57;;;;;;;11.55;5.55;;;;;;;9.20;48.52;100354.16;5095119;28;20099;-57
2021/12/26 07:22:22;;;;;;;11.80;5.32;;;;;;;9.26;48.73;100369.66;5095344;28;20040;-57
2021/12/26 07:24:48;;;;;;;11.98;6.32;;;;;;;9.28;49.09;100372.19;5094166;28;20460;-56
2021/12/26 07:27:14;;;;;;;10.70;6.32;;;;;;;9.27;49.19;100365.97;5094842;28;20535;-56
2021/12/26 07:29:42;;;;;;;12.40;5.65;;;;;;;9.19;49.12;100367.63;5095433;28;20051;-56
2021/12/26 07:32:09;;;;;;;11.55;6.00;;;;;;;9.26;49.41;100375.00;5095065;28;20028;-58
2021/12/26 07:34:34;;;;;;;10.55;5.60;;;;;;;9.29;48.63;100381.91;5095573;28;20066;-58
2021/12/26 07:37:01;;;;;;;11.20;5.53;;;;;;;9.29;48.57;100376.56;5096111;28;20050;-57
2021/12/26 07:39:27;;;;;;;11.55;6.20;;;;;;;9.27;49.43;100381.16;5095538;28;20472;-57
2021/12/26 07:41:52;;;;;;;10.45;6.15;;;;;;;9.28;48.53;100388.22;5094529;28;20037;-57
2021/12/26 07:44:17;;;;;;;11.68;6.35;;;;;;;9.26;48.79;100384.84;5095454;28;20425;-56
2021/12/26 07:46:43;;;;;;;9.82;5.47;;;;;;;9.27;48.77;100382.00;5095197;28;20038;-57
2021/12/26 07:49:08;;;;;;;14.35;5.80;;;;;;;9.25;49.20;100383.97;5095046;28;20085;-58
2021/12/26 07:51:34;;;;;;;13.40;5.72;;;;;;;9.28;49.01;100380.19;5095240;28;20028;-57
2021/12/26 07:54:01;;;;;;;14.00;6.25;;;;;;;9.27;49.13;100376.66;5093181;28;20035;-56
2021/12/26 07:56:27;;;;;;;9.65;5.05;;;;;;;9.30;48.64;100389.78;5094946;28;20043;-56
2021/12/26 07:58:52;;;;;;;13.20;5.28;;;;;;;9.31;49.21;100382.59;5094725;28;20397;-58
2021/12/26 08:01:18;;;;;;;12.82;6.32;;;;;;;9.29;48.44;100379.22;5093295;28;20384;-58
2021/12/26 08:03:43;;;;;;;11.25;5.50;;;;;;;9.32;49.13;100392.34;5094110;28;20036;-56
2021/12/26 08:06:13;;;;;;;14.15;6.28;;;;;;;9.31;48.84;100387.97;5094429;28;20472;-56
2021/12/26 08:08:38;;;;;;;12.05;5.10;;;;;;;9.31;49.26;100382.59;5094995;28;20023;-56
2021/12/26 08:11:04;;;;;;;9.68;5.78;;;;;;;9.35;49.01;100384.06;5093666;28;20107;-57
2021/12/26 08:13:31;;;;;;;15.45;5.70;;;;;;;9.34;48.79;100395.72;5094636;28;20061;-58
2021/12/26 08:15:56;;;;;;;10.88;5.55;;;;;;;9.34;48.93;100382.34;5094539;28;20027;-58
2021/12/26 08:18:22;;;;;;;12.95;5.63;;;;;;;9.36;48.77;100388.41;5093677;28;20030;-57
2021/12/26 08:20:48;;;;;;;12.25;5.53;;;;;;;9.41;49.05;100391.50;5094375;28;20078;-58
2021/12/26 08:23:13;;;;;;;12.02;5.28;;;;;;;9.41;49.09;100386.16;5094307;28;20051;-58
2021/12/26 08:25:39;;;;;;;10.73;5.53;;;;;;;9.40;48.77;100381.81;5094403;28;20437;-58
2021/12/26 08:28:04;;;;;;;11.13;5.57;;;;;;;9.40;49.39;100376.47;5093119;28;20385;-58
2021/12/26 08:30:30;;;;;;;12.48;6.05;;;;;;;9.43;48.97;100391.41;5093030;28;20046;-58
2021/12/26 08:32:59;;;;;;;14.13;5.68;;;;;;;9.44;49.39;100390.41;5093083;28;20093;-58
2021/12/26 08:35:24;;;;;;;13.90;5.65;;;;;;;9.45;49.15;100387.63;5094390;28;20059;-57
2021/12/26 08:37:50;;;;;;;14.25;5.70;;;;;;;9.47;49.46;100387.47;5094291;28;20062;-57
2021/12/26 08:40:15;;;;;;;11.95;6.45;;;;;;;9.48;48.76;100387.34;5094053;28;20449;-56
2021/12/26 08:42:41;;;;;;;10.68;5.60;;;;;;;9.47;49.33;100377.63;5094316;28;20024;-57
2021/12/26 08:45:07;;;;;;;11.00;5.72;;;;;;;9.44;49.56;100372.53;5092878;28;20496;-57
2021/12/26 08:47:33;;;;;;;12.80;7.18;;;;;;;9.50;49.26;100377.34;5093031;28;20024;-58
2021/12/26 08:49:58;;;;;;;12.73;6.35;;;;;;;9.51;49.44;100383.56;5094227;28;20024;-58
2021/12/26 08:52:24;;;;;;;12.65;6.07;;;;;;;9.51;49.38;100381.75;5096075;28;20088;-57
2021/12/26 08:54:49;;;;;;;12.35;5.88;;;;;;;9.41;49.36;100366.63;5098431;28;20059;-56
2021/12/26 08:57:17;;;;;;;13.82;6.63;;;;;;;9.53;49.32;100374.41;5098239;28;20391;-58
2021/12/26 08:59:43;;;;;;;14.73;5.70;;;;;;;9.56;49.28;100374.16;5098155;28;20032;-57
2021/12/26 09:02:09;;;;;;;10.85;5.68;;;;;;;9.61;48.93;100379.09;5098402;28;20078;-58
2021/12/26 09:04:39;;;;;;;10.48;5.63;;;;;;;9.64;49.03;100379.69;5096949;28;20087;-56
2021/12/26 09:07:05;;;;;;;15.07;6.32;;;;;;;9.68;48.85;100367.75;5098386;28;20438;-56
2021/12/26 09:09:30;;;;;;;9.57;4.78;;;;;;;9.71;48.99;100375.50;5098340;28;20026;-58
2021/12/26 09:11:57;;;;;;;16.83;7.22;;;;;;;9.76;49.23;100373.25;5098137;28;20035;-58
2021/12/26 09:14:23;;;;;;;11.43;5.57;;;;;;;9.80;48.68;100374.66;5098256;28;20027;-56
2021/12/26 09:16:48;;;;;;;11.65;6.85;;;;;;;9.80;49.36;100377.34;5098246;28;20031;-56
2021/12/26 09:19:14;;;;;;;12.40;5.95;;;;;;;9.83;49.14;100369.03;5097507;28;20062;-57
2021/12/26 09:21:39;;;;;;;15.05;6.75;;;;;;;9.86;49.04;100374.13;5097411;28;20484;-57
2021/12/26 09:24:05;;;;;;;13.90;6.78;;;;;;;9.91;48.94;100371.03;5097484;28;20060;-58
2021/12/26 09:26:31;;;;;;;16.98;7.07;;;;;;;9.91;48.78;100374.56;5096497;28;20028;-56
2021/12/26 09:28:57;;;;;;;12.68;5.60;;;;;;;10.02;48.93;100378.13;5098032;28;20055;-57
2021/12/26 09:31:23;;;;;;;13.48;6.32;;;;;;;10.04;49.23;100377.00;5096637;28;20069;-56
2021/12/26 09:33:48;;;;;;;13.77;5.90;;;;;;;10.06;49.57;100374.19;5097963;28;20032;-57
2021/12/26 09:36:14;;;;;;;15.50;5.93;;;;;;;10.13;49.25;100378.06;5097871;28;20093;-56
2021/12/26 09:38:39;;;;;;;14.98;7.25;;;;;;;10.17;48.96;100369.59;5096231;28;20468;-56
2021/12/26 09:41:04;;;;;;;14.18;6.05;;;;;;;10.25;49.11;100379.59;5097602;28;20032;-57
2021/12/26 09:43:30;;;;;;;12.18;6.63;;;;;;;10.26;48.96;100381.31;5097361;28;20396;-56
2021/12/26 09:45:55;;;;;;;11.65;5.47;;;;;;;10.27;48.92;100383.84;5097295;28;20047;-57
2021/12/26 09:48:21;;;;;;;15.15;6.22;;;;;;;10.21;49.21;100372.84;5097376;28;20063;-58
2021/12/26 09:50:46;;;;;;;11.25;5.50;;;;;;;10.30;48.85;100382.75;5078995;28;20035;-56
2021/12/26 09:53:13;;;;;;;11.30;6.28;;;;;;;10.34;49.07;100384.13;5095839;28;20096;-58
2021/12/26 09:55:38;;;;;;;16.60;6.05;;;;;;;10.32;49.21;100381.59;5095515;28;20028;-56
2021/12/26 09:58:04;;;;;;;11.13;5.88;;;;;;;10.38;48.99;100378.38;5096786;28;20032;-57
2021/12/26 10:00:34;;;;;;;13.15;5.68;;;;;;;10.39;49.16;100377.38;5096822;28;20180;-57
2021/12/26 10:03:14;;;;;;;13.50;6.97;;;;;;;10.39;49.03;100381.88;5095802;28;20169;-58
2021/12/26 10:06:02;;;;;;;13.60;6.53;;;;;;;10.42;48.66;100376.25;5096839;28;20024;-56
2021/12/26 10:08:29;;;;;;;12.50;5.25;;;;;;;10.45;49.11;100376.81;5096796;28;20055;-56
2021/12/26 10:11:14;;;;;;;12.80;6.68;;;;;;;10.49;48.98;100372.03;5079029;28;20506;-58
2021/12/26 10:13:42;;;;;;;11.93;6.20;;;;;;;10.51;48.69;100367.38;5096742;28;20063;-56
2021/12/26 10:16:07;;;;;;;13.20;6.13;;;;;;;10.48;48.92;100349.78;5096665;28;20476;-56
2021/12/26 10:18:39;;;;;;;11.55;5.50;;;;;;;10.51;48.87;100344.13;5096519;28;20038;-58
2021/12/26 10:21:21;;;;;;;14.23;6.57;;;;;;;10.59;48.88;100343.44;5094996;28;20048;-57
2021/12/26 10:23:47;;;;;;;13.88;6.25;;;;;;;10.59;48.83;100338.06;5095255;28;20028;-58
2021/12/26 10:26:29;;;;;;;11.88;5.93;;;;;;;10.58;48.68;100322.97;5096198;28;20036;-56
2021/12/26 10:29:04;;;;;;;13.95;6.18;;;;;;;10.65;48.99;100328.63;5096670;28;20480;-57
2021/12/26 10:31:29;;;;;;;13.48;5.97;;;;;;;10.71;48.97;100334.28;5096811;28;20023;-57
2021/12/26 10:33:55;;;;;;;13.38;6.05;;;;;;;10.70;49.48;100318.31;5096255;28;20122;-57
2021/12/26 10:36:20;;;;;;;13.40;6.30;;;;;;;10.76;48.85;100326.66;5096946;28;20095;-57
2021/12/26 10:39:17;;;;;;;14.20;7.25;;;;;;;10.79;48.82;100315.66;5096101;28;20104;-57
2021/12/26 10:41:44;;;;;;;12.25;6.15;;;;;;;10.81;48.88;100308.31;5096202;28;20142;-57
2021/12/26 10:44:22;;;;;;;17.15;6.25;;;;;;;10.85;48.61;100304.38;5094894;28;20510;-57
2021/12/26 10:46:53;;;;;;;11.98;6.80;;;;;;;10.89;48.79;100310.25;5096006;28;20032;-56
2021/12/26 10:49:30;;;;;;;12.63;5.72;;;;;;;10.95;48.84;100313.22;5096342;28;20016;-57
2021/12/26 10:51:55;;;;;;;15.07;6.50;;;;;;;10.98;48.70;100310.25;5096019;28;20024;-57
2021/12/26 10:54:25;;;;;;;12.80;6.18;;;;;;;11.02;48.42;100308.13;5094847;28;20030;-56
2021/12/26 10:57:13;;;;;;;14.90;5.60;;;;;;;11.03;48.76;100302.63;5096058;28;20113;-57
2021/12/26 10:59:40;;;;;;;14.50;5.65;;;;;;;11.07;48.74;100304.03;5095821;28;20028;-57
2021/12/26 11:02:07;;;;;;;13.60;6.47;;;;;;;11.14;48.84;100303.44;5096087;28;20024;-58
2021/12/26 11:04:34;;;;;;;13.80;6.18;;;;;;;11.21;48.74;100304.53;5094585;28;20101;-57
2021/12/26 11:07:04;;;;;;;13.88;6.10;;;;;;;11.31;49.17;100310.69;5094257;28;20155;-57
2021/12/26 11:09:30;;;;;;;11.40;5.80;;;;;;;11.39;48.91;100300.13;5094298;28;20099;-58
2021/12/26 11:11:59;;;;;;;10.93;5.93;;;;;;;11.50;48.74;100308.78;5094342;28;20111;-56
2021/12/26 11:14:25;;;;;;;17.15;5.93;;;;;;;11.55;48.63;100303.00;5095692;28;20028;-58
2021/12/26 11:16:50;;;;;;;18.55;7.70;;;;;;;11.59;48.99;100299.88;5077290;28;20023;-58
2021/12/26 11:19:16;;;;;;;12.90;6.75;;;;;;;11.64;48.18;100307.47;5095540;28;20023;-56
2021/12/26 11:21:42;;;;;;;12.40;6.10;;;;;;;11.72;48.35;100302.25;5093990;28;20051;-57
2021/12/26 11:24:07;;;;;;;12.35;5.60;;;;;;;11.78;48.42;100298.94;5095435;28;20028;-58
2021/12/26 11:26:33;;;;;;;13.65;6.82;;;;;;;11.82;48.96;100303.03;5093901;28;20032;-57